sensor_id;sensor_type;location;lat;lon;timestamp;P1;durP1;ratioP1;P2;durP2;ratioP2
75400;SDS011;63974;47.538;18.972;2023-12-29T00:02:26;5.80;;;2.75;;
75400;SDS011;63974;47.538;18.972;2023-12-29T00:05:29;7.10;;;3.13;;
75400;SDS011;63974;47.538;18.972;2023-12-29T00:08:32;4.60;;;3.07;;
75400;SDS011;63974;47.538;18.972;2023-12-29T00:11:35;5.10;;;2.78;;
75400;SDS011;63974;47.538;18.972;2023-12-29T00:14:40;5.93;;;3.20;;
75400;SDS011;63974;47.538;18.972;2023-12-29T00:17:43;6.40;;;2.92;;
75400;SDS011;63974;47.538;18.972;2023-12-29T00:20:47;4.57;;;2.93;;
75400;SDS011;63974;47.538;18.972;2023-12-29T00:24:07;4.03;;;2.80;;
75400;SDS011;63974;47.538;18.972;2023-12-29T00:27:09;6.20;;;3.00;;
75400;SDS011;63974;47.538;18.972;2023-12-29T00:30:12;7.72;;;3.08;;
75400;SDS011;63974;47.538;18.972;2023-12-29T00:33:15;4.95;;;3.00;;
75400;SDS011;63974;47.538;18.972;2023-12-29T00:36:19;7.33;;;3.07;;
75400;SDS011;63974;47.538;18.972;2023-12-29T00:39:22;5.47;;;3.10;;
75400;SDS011;63974;47.538;18.972;2023-12-29T00:42:41;5.20;;;2.75;;
75400;SDS011;63974;47.538;18.972;2023-12-29T00:45:44;5.53;;;2.90;;
75400;SDS011;63974;47.538;18.972;2023-12-29T00:48:47;5.93;;;3.00;;
75400;SDS011;63974;47.538;18.972;2023-12-29T00:51:50;6.23;;;2.60;;
75400;SDS011;63974;47.538;18.972;2023-12-29T00:54:53;5.30;;;2.87;;
75400;SDS011;63974;47.538;18.972;2023-12-29T00:57:56;6.18;;;3.22;;
75400;SDS011;63974;47.538;18.972;2023-12-29T01:00:59;8.52;;;2.92;;
75400;SDS011;63974;47.538;18.972;2023-12-29T01:04:02;9.30;;;4.22;;
75400;SDS011;63974;47.538;18.972;2023-12-29T01:07:06;8.23;;;4.50;;
75400;SDS011;63974;47.538;18.972;2023-12-29T01:10:09;10.60;;;4.50;;
75400;SDS011;63974;47.538;18.972;2023-12-29T01:13:12;7.90;;;4.10;;
75400;SDS011;63974;47.538;18.972;2023-12-29T01:16:15;7.13;;;3.97;;
75400;SDS011;63974;47.538;18.972;2023-12-29T01:19:17;7.68;;;3.55;;
75400;SDS011;63974;47.538;18.972;2023-12-29T01:22:20;7.00;;;3.67;;
75400;SDS011;63974;47.538;18.972;2023-12-29T01:25:23;9.13;;;3.77;;
75400;SDS011;63974;47.538;18.972;2023-12-29T01:28:26;9.80;;;4.10;;
75400;SDS011;63974;47.538;18.972;2023-12-29T01:31:29;12.80;;;4.60;;
75400;SDS011;63974;47.538;18.972;2023-12-29T01:34:33;9.43;;;4.22;;
75400;SDS011;63974;47.538;18.972;2023-12-29T01:37:37;10.10;;;4.67;;
75400;SDS011;63974;47.538;18.972;2023-12-29T01:40:46;10.53;;;6.23;;
75400;SDS011;63974;47.538;18.972;2023-12-29T01:47:05;16.90;;;9.50;;
75400;SDS011;63974;47.538;18.972;2023-12-29T01:50:16;19.17;;;8.88;;
75400;SDS011;63974;47.538;18.972;2023-12-29T01:53:23;21.57;;;9.50;;
75400;SDS011;63974;47.538;18.972;2023-12-29T01:56:40;17.77;;;9.07;;
75400;SDS011;63974;47.538;18.972;2023-12-29T01:59:45;16.08;;;7.22;;
75400;SDS011;63974;47.538;18.972;2023-12-29T02:02:48;18.88;;;8.50;;
75400;SDS011;63974;47.538;18.972;2023-12-29T02:05:52;17.23;;;7.70;;
75400;SDS011;63974;47.538;18.972;2023-12-29T02:08:58;15.87;;;8.30;;
75400;SDS011;63974;47.538;18.972;2023-12-29T02:12:01;11.43;;;5.73;;
75400;SDS011;63974;47.538;18.972;2023-12-29T02:15:04;7.57;;;4.55;;
75400;SDS011;63974;47.538;18.972;2023-12-29T02:18:10;7.00;;;3.50;;
75400;SDS011;63974;47.538;18.972;2023-12-29T02:21:17;5.40;;;3.15;;
75400;SDS011;63974;47.538;18.972;2023-12-29T02:24:26;6.43;;;3.50;;
75400;SDS011;63974;47.538;18.972;2023-12-29T02:27:43;4.53;;;3.00;;
75400;SDS011;63974;47.538;18.972;2023-12-29T02:30:56;6.40;;;2.63;;
75400;SDS011;63974;47.538;18.972;2023-12-29T02:34:04;5.53;;;2.72;;
75400;SDS011;63974;47.538;18.972;2023-12-29T02:37:10;6.55;;;2.67;;
75400;SDS011;63974;47.538;18.972;2023-12-29T02:40:15;6.03;;;2.67;;
75400;SDS011;63974;47.538;18.972;2023-12-29T02:43:18;6.40;;;3.23;;
75400;SDS011;63974;47.538;18.972;2023-12-29T02:46:21;5.25;;;3.50;;
75400;SDS011;63974;47.538;18.972;2023-12-29T02:49:26;7.80;;;3.63;;
75400;SDS011;63974;47.538;18.972;2023-12-29T02:52:29;8.25;;;3.65;;
75400;SDS011;63974;47.538;18.972;2023-12-29T02:55:32;8.20;;;3.30;;
75400;SDS011;63974;47.538;18.972;2023-12-29T02:58:35;5.67;;;3.70;;
75400;SDS011;63974;47.538;18.972;2023-12-29T03:01:38;5.63;;;3.22;;
75400;SDS011;63974;47.538;18.972;2023-12-29T03:04:40;8.50;;;3.78;;
75400;SDS011;63974;47.538;18.972;2023-12-29T03:07:43;6.03;;;3.53;;
75400;SDS011;63974;47.538;18.972;2023-12-29T03:10:46;7.40;;;3.90;;
75400;SDS011;63974;47.538;18.972;2023-12-29T03:13:49;5.80;;;3.60;;
75400;SDS011;63974;47.538;18.972;2023-12-29T03:16:53;5.00;;;3.50;;
75400;SDS011;63974;47.538;18.972;2023-12-29T03:19:55;7.93;;;3.58;;
75400;SDS011;63974;47.538;18.972;2023-12-29T03:22:58;7.03;;;3.47;;
75400;SDS011;63974;47.538;18.972;2023-12-29T03:26:01;7.47;;;3.63;;
75400;SDS011;63974;47.538;18.972;2023-12-29T03:29:05;8.63;;;3.60;;
75400;SDS011;63974;47.538;18.972;2023-12-29T03:32:08;7.00;;;4.00;;
75400;SDS011;63974;47.538;18.972;2023-12-29T03:35:10;6.57;;;3.17;;
75400;SDS011;63974;47.538;18.972;2023-12-29T03:38:13;8.63;;;4.38;;
75400;SDS011;63974;47.538;18.972;2023-12-29T03:41:16;6.10;;;3.80;;
75400;SDS011;63974;47.538;18.972;2023-12-29T03:44:19;5.63;;;3.67;;
75400;SDS011;63974;47.538;18.972;2023-12-29T03:47:23;7.03;;;4.05;;
75400;SDS011;63974;47.538;18.972;2023-12-29T03:50:26;6.68;;;3.75;;
75400;SDS011;63974;47.538;18.972;2023-12-29T03:53:29;6.25;;;3.47;;
75400;SDS011;63974;47.538;18.972;2023-12-29T03:56:31;9.30;;;3.90;;
75400;SDS011;63974;47.538;18.972;2023-12-29T03:59:37;8.03;;;3.50;;
75400;SDS011;63974;47.538;18.972;2023-12-29T04:02:40;5.43;;;3.22;;
75400;SDS011;63974;47.538;18.972;2023-12-29T04:05:43;6.32;;;3.92;;
75400;SDS011;63974;47.538;18.972;2023-12-29T04:08:46;13.05;;;4.95;;
75400;SDS011;63974;47.538;18.972;2023-12-29T04:11:48;10.47;;;4.67;;
75400;SDS011;63974;47.538;18.972;2023-12-29T04:14:51;12.50;;;4.90;;
75400;SDS011;63974;47.538;18.972;2023-12-29T04:17:54;9.77;;;4.53;;
75400;SDS011;63974;47.538;18.972;2023-12-29T04:20:56;10.23;;;4.60;;
75400;SDS011;63974;47.538;18.972;2023-12-29T04:23:59;11.35;;;4.30;;
75400;SDS011;63974;47.538;18.972;2023-12-29T04:27:02;12.43;;;5.43;;
75400;SDS011;63974;47.538;18.972;2023-12-29T04:30:06;12.10;;;5.37;;
75400;SDS011;63974;47.538;18.972;2023-12-29T04:33:09;9.32;;;4.82;;
75400;SDS011;63974;47.538;18.972;2023-12-29T04:36:12;10.90;;;4.65;;
75400;SDS011;63974;47.538;18.972;2023-12-29T04:39:14;8.23;;;4.10;;
75400;SDS011;63974;47.538;18.972;2023-12-29T04:42:20;9.93;;;5.10;;
75400;SDS011;63974;47.538;18.972;2023-12-29T04:45:22;9.80;;;4.80;;
75400;SDS011;63974;47.538;18.972;2023-12-29T04:48:25;8.75;;;4.07;;
75400;SDS011;63974;47.538;18.972;2023-12-29T04:51:27;7.38;;;4.25;;
75400;SDS011;63974;47.538;18.972;2023-12-29T04:54:30;8.25;;;4.05;;
75400;SDS011;63974;47.538;18.972;2023-12-29T04:57:33;8.00;;;4.47;;
75400;SDS011;63974;47.538;18.972;2023-12-29T05:00:36;8.90;;;3.83;;
75400;SDS011;63974;47.538;18.972;2023-12-29T05:03:38;7.18;;;3.70;;
75400;SDS011;63974;47.538;18.972;2023-12-29T05:06:41;8.50;;;4.18;;
75400;SDS011;63974;47.538;18.972;2023-12-29T05:09:44;5.80;;;3.83;;
75400;SDS011;63974;47.538;18.972;2023-12-29T05:12:47;8.57;;;3.83;;
75400;SDS011;63974;47.538;18.972;2023-12-29T05:15:50;8.40;;;4.17;;
75400;SDS011;63974;47.538;18.972;2023-12-29T05:18:52;9.35;;;4.47;;
75400;SDS011;63974;47.538;18.972;2023-12-29T05:21:55;10.32;;;4.85;;
75400;SDS011;63974;47.538;18.972;2023-12-29T05:24:58;7.15;;;3.90;;
75400;SDS011;63974;47.538;18.972;2023-12-29T05:28:02;11.00;;;4.83;;
75400;SDS011;63974;47.538;18.972;2023-12-29T05:31:05;13.50;;;6.47;;
75400;SDS011;63974;47.538;18.972;2023-12-29T05:34:08;11.80;;;6.22;;
75400;SDS011;63974;47.538;18.972;2023-12-29T05:37:11;11.15;;;5.72;;
75400;SDS011;63974;47.538;18.972;2023-12-29T05:40:14;11.35;;;4.57;;
75400;SDS011;63974;47.538;18.972;2023-12-29T05:43:17;7.60;;;3.93;;
75400;SDS011;63974;47.538;18.972;2023-12-29T05:46:21;8.17;;;4.23;;
75400;SDS011;63974;47.538;18.972;2023-12-29T05:49:24;9.95;;;4.78;;
75400;SDS011;63974;47.538;18.972;2023-12-29T05:52:28;10.73;;;5.13;;
75400;SDS011;63974;47.538;18.972;2023-12-29T05:55:31;9.52;;;4.90;;
75400;SDS011;63974;47.538;18.972;2023-12-29T05:58:34;9.47;;;5.07;;
75400;SDS011;63974;47.538;18.972;2023-12-29T06:01:36;6.43;;;4.30;;
75400;SDS011;63974;47.538;18.972;2023-12-29T06:04:39;7.10;;;3.80;;
75400;SDS011;63974;47.538;18.972;2023-12-29T06:07:42;7.95;;;4.40;;
75400;SDS011;63974;47.538;18.972;2023-12-29T06:10:45;7.18;;;3.75;;
75400;SDS011;63974;47.538;18.972;2023-12-29T06:13:48;6.03;;;3.50;;
75400;SDS011;63974;47.538;18.972;2023-12-29T06:16:51;7.90;;;4.10;;
75400;SDS011;63974;47.538;18.972;2023-12-29T06:19:55;6.72;;;3.80;;
75400;SDS011;63974;47.538;18.972;2023-12-29T06:22:57;6.78;;;4.82;;
75400;SDS011;63974;47.538;18.972;2023-12-29T06:26:02;6.97;;;3.72;;
75400;SDS011;63974;47.538;18.972;2023-12-29T06:29:04;9.10;;;4.60;;
75400;SDS011;63974;47.538;18.972;2023-12-29T06:32:07;9.50;;;5.40;;
75400;SDS011;63974;47.538;18.972;2023-12-29T06:35:10;9.05;;;5.43;;
75400;SDS011;63974;47.538;18.972;2023-12-29T06:38:13;9.93;;;4.75;;
75400;SDS011;63974;47.538;18.972;2023-12-29T06:41:16;12.00;;;5.20;;
75400;SDS011;63974;47.538;18.972;2023-12-29T06:44:19;46.27;;;22.07;;
75400;SDS011;63974;47.538;18.972;2023-12-29T06:47:22;23.10;;;11.70;;
75400;SDS011;63974;47.538;18.972;2023-12-29T06:50:24;16.10;;;9.50;;
75400;SDS011;63974;47.538;18.972;2023-12-29T06:53:27;54.65;;;18.95;;
75400;SDS011;63974;47.538;18.972;2023-12-29T06:56:30;144.23;;;41.20;;
75400;SDS011;63974;47.538;18.972;2023-12-29T06:59:33;63.00;;;19.67;;
75400;SDS011;63974;47.538;18.972;2023-12-29T07:02:38;92.83;;;27.93;;
75400;SDS011;63974;47.538;18.972;2023-12-29T07:05:42;81.55;;;26.85;;
75400;SDS011;63974;47.538;18.972;2023-12-29T07:08:45;30.48;;;12.95;;
75400;SDS011;63974;47.538;18.972;2023-12-29T07:11:49;28.80;;;12.90;;
75400;SDS011;63974;47.538;18.972;2023-12-29T07:14:52;31.27;;;14.40;;
75400;SDS011;63974;47.538;18.972;2023-12-29T07:17:56;23.50;;;11.87;;
75400;SDS011;63974;47.538;18.972;2023-12-29T07:20:59;19.63;;;9.30;;
75400;SDS011;63974;47.538;18.972;2023-12-29T07:24:02;23.30;;;10.40;;
75400;SDS011;63974;47.538;18.972;2023-12-29T07:27:05;22.52;;;9.73;;
75400;SDS011;63974;47.538;18.972;2023-12-29T07:30:08;31.37;;;11.93;;
75400;SDS011;63974;47.538;18.972;2023-12-29T07:33:11;35.20;;;10.23;;
75400;SDS011;63974;47.538;18.972;2023-12-29T07:36:13;23.15;;;9.02;;
75400;SDS011;63974;47.538;18.972;2023-12-29T07:39:19;21.80;;;9.07;;
75400;SDS011;63974;47.538;18.972;2023-12-29T07:42:22;22.17;;;8.35;;
75400;SDS011;63974;47.538;18.972;2023-12-29T07:45:25;14.30;;;6.57;;
75400;SDS011;63974;47.538;18.972;2023-12-29T07:48:27;14.30;;;5.97;;
75400;SDS011;63974;47.538;18.972;2023-12-29T07:51:30;13.55;;;6.15;;
75400;SDS011;63974;47.538;18.972;2023-12-29T07:54:34;13.38;;;5.53;;
75400;SDS011;63974;47.538;18.972;2023-12-29T07:57:36;12.77;;;5.90;;
75400;SDS011;63974;47.538;18.972;2023-12-29T08:00:39;14.30;;;6.40;;
75400;SDS011;63974;47.538;18.972;2023-12-29T08:03:42;12.40;;;5.87;;
75400;SDS011;63974;47.538;18.972;2023-12-29T08:06:45;13.98;;;5.78;;
75400;SDS011;63974;47.538;18.972;2023-12-29T08:09:48;11.48;;;6.45;;
75400;SDS011;63974;47.538;18.972;2023-12-29T08:12:51;11.82;;;5.68;;
75400;SDS011;63974;47.538;18.972;2023-12-29T08:15:54;9.10;;;4.80;;
75400;SDS011;63974;47.538;18.972;2023-12-29T08:18:56;11.03;;;5.70;;
75400;SDS011;63974;47.538;18.972;2023-12-29T08:21:59;16.17;;;8.25;;
75400;SDS011;63974;47.538;18.972;2023-12-29T08:25:02;20.08;;;10.00;;
75400;SDS011;63974;47.538;18.972;2023-12-29T08:28:05;27.27;;;16.17;;
75400;SDS011;63974;47.538;18.972;2023-12-29T08:31:08;28.07;;;15.40;;
75400;SDS011;63974;47.538;18.972;2023-12-29T08:34:11;23.90;;;14.13;;
75400;SDS011;63974;47.538;18.972;2023-12-29T08:37:14;31.92;;;17.73;;
75400;SDS011;63974;47.538;18.972;2023-12-29T08:40:22;29.20;;;16.20;;
75400;SDS011;63974;47.538;18.972;2023-12-29T08:43:25;37.17;;;17.92;;
75400;SDS011;63974;47.538;18.972;2023-12-29T08:46:28;18.13;;;9.77;;
75400;SDS011;63974;47.538;18.972;2023-12-29T08:49:31;13.00;;;7.90;;
75400;SDS011;63974;47.538;18.972;2023-12-29T08:52:34;10.32;;;6.03;;
75400;SDS011;63974;47.538;18.972;2023-12-29T08:55:38;8.88;;;5.05;;
75400;SDS011;63974;47.538;18.972;2023-12-29T08:58:41;9.82;;;5.60;;
75400;SDS011;63974;47.538;18.972;2023-12-29T09:01:44;10.70;;;4.97;;
75400;SDS011;63974;47.538;18.972;2023-12-29T09:04:47;8.97;;;4.77;;
75400;SDS011;63974;47.538;18.972;2023-12-29T09:07:50;8.80;;;4.38;;
75400;SDS011;63974;47.538;18.972;2023-12-29T09:10:52;8.27;;;4.70;;
75400;SDS011;63974;47.538;18.972;2023-12-29T09:13:55;7.75;;;4.88;;
75400;SDS011;63974;47.538;18.972;2023-12-29T09:16:58;9.47;;;4.83;;
75400;SDS011;63974;47.538;18.972;2023-12-29T09:20:01;10.10;;;4.93;;
75400;SDS011;63974;47.538;18.972;2023-12-29T09:23:11;8.00;;;3.90;;
75400;SDS011;63974;47.538;18.972;2023-12-29T09:26:14;7.47;;;3.92;;
75400;SDS011;63974;47.538;18.972;2023-12-29T09:29:17;6.63;;;4.18;;
75400;SDS011;63974;47.538;18.972;2023-12-29T09:32:20;8.03;;;4.10;;
75400;SDS011;63974;47.538;18.972;2023-12-29T09:35:22;8.07;;;4.97;;
75400;SDS011;63974;47.538;18.972;2023-12-29T09:38:25;8.43;;;4.20;;
75400;SDS011;63974;47.538;18.972;2023-12-29T09:41:28;7.20;;;3.58;;
75400;SDS011;63974;47.538;18.972;2023-12-29T09:44:34;8.13;;;5.40;;
75400;SDS011;63974;47.538;18.972;2023-12-29T09:47:38;10.57;;;5.67;;
75400;SDS011;63974;47.538;18.972;2023-12-29T09:50:42;8.70;;;4.83;;
75400;SDS011;63974;47.538;18.972;2023-12-29T09:53:46;18.95;;;5.47;;
75400;SDS011;63974;47.538;18.972;2023-12-29T09:56:50;7.70;;;5.50;;
75400;SDS011;63974;47.538;18.972;2023-12-29T09:59:53;9.80;;;6.60;;
75400;SDS011;63974;47.538;18.972;2023-12-29T10:02:56;12.07;;;6.97;;
75400;SDS011;63974;47.538;18.972;2023-12-29T10:06:00;12.03;;;6.67;;
75400;SDS011;63974;47.538;18.972;2023-12-29T10:09:10;12.65;;;7.85;;
75400;SDS011;63974;47.538;18.972;2023-12-29T10:12:15;11.60;;;6.90;;
75400;SDS011;63974;47.538;18.972;2023-12-29T10:15:22;9.77;;;6.13;;
75400;SDS011;63974;47.538;18.972;2023-12-29T10:25:13;11.70;;;5.30;;
75400;SDS011;63974;47.538;18.972;2023-12-29T10:28:16;8.20;;;5.68;;
75400;SDS011;63974;47.538;18.972;2023-12-29T10:31:23;10.07;;;5.13;;
75400;SDS011;63974;47.538;18.972;2023-12-29T10:34:26;10.20;;;5.80;;
75400;SDS011;63974;47.538;18.972;2023-12-29T10:37:32;10.93;;;4.93;;
75400;SDS011;63974;47.538;18.972;2023-12-29T10:40:35;8.90;;;5.50;;
75400;SDS011;63974;47.538;18.972;2023-12-29T10:43:38;11.07;;;5.95;;
75400;SDS011;63974;47.538;18.972;2023-12-29T10:46:40;11.02;;;5.47;;
75400;SDS011;63974;47.538;18.972;2023-12-29T10:49:43;9.57;;;4.43;;
75400;SDS011;63974;47.538;18.972;2023-12-29T10:52:46;9.33;;;5.03;;
75400;SDS011;63974;47.538;18.972;2023-12-29T10:55:49;9.18;;;4.70;;
75400;SDS011;63974;47.538;18.972;2023-12-29T10:59:04;11.65;;;4.82;;
75400;SDS011;63974;47.538;18.972;2023-12-29T11:02:11;5.05;;;3.10;;
75400;SDS011;63974;47.538;18.972;2023-12-29T11:05:17;4.07;;;2.50;;
75400;SDS011;63974;47.538;18.972;2023-12-29T11:08:28;8.50;;;2.20;;
75400;SDS011;63974;47.538;18.972;2023-12-29T11:11:31;4.85;;;2.60;;
75400;SDS011;63974;47.538;18.972;2023-12-29T11:14:36;3.58;;;2.60;;
75400;SDS011;63974;47.538;18.972;2023-12-29T11:17:41;3.67;;;2.40;;
75400;SDS011;63974;47.538;18.972;2023-12-29T11:20:54;5.80;;;2.90;;
75400;SDS011;63974;47.538;18.972;2023-12-29T11:23:58;4.97;;;3.10;;
75400;SDS011;63974;47.538;18.972;2023-12-29T11:27:01;6.13;;;2.80;;
75400;SDS011;63974;47.538;18.972;2023-12-29T11:30:05;5.18;;;2.70;;
75400;SDS011;63974;47.538;18.972;2023-12-29T11:33:14;11.02;;;4.95;;
75400;SDS011;63974;47.538;18.972;2023-12-29T11:36:24;17.07;;;6.23;;
75400;SDS011;63974;47.538;18.972;2023-12-29T11:39:52;34.60;;;12.80;;
75400;SDS011;63974;47.538;18.972;2023-12-29T11:43:03;21.73;;;7.35;;
75400;SDS011;63974;47.538;18.972;2023-12-29T11:53:11;3.20;;;1.83;;
75400;SDS011;63974;47.538;18.972;2023-12-29T11:56:37;3.30;;;1.60;;
75400;SDS011;63974;47.538;18.972;2023-12-29T11:59:48;3.80;;;1.98;;
75400;SDS011;63974;47.538;18.972;2023-12-29T12:02:51;3.72;;;1.85;;
75400;SDS011;63974;47.538;18.972;2023-12-29T12:05:55;3.40;;;1.80;;
75400;SDS011;63974;47.538;18.972;2023-12-29T12:09:16;3.03;;;1.83;;
75400;SDS011;63974;47.538;18.972;2023-12-29T12:12:39;3.87;;;2.07;;
75400;SDS011;63974;47.538;18.972;2023-12-29T12:15:43;2.97;;;1.80;;
75400;SDS011;63974;47.538;18.972;2023-12-29T12:18:46;2.88;;;1.90;;
75400;SDS011;63974;47.538;18.972;2023-12-29T12:21:49;2.53;;;1.63;;
75400;SDS011;63974;47.538;18.972;2023-12-29T12:24:56;3.23;;;2.37;;
75400;SDS011;63974;47.538;18.972;2023-12-29T12:28:06;3.83;;;2.00;;
75400;SDS011;63974;47.538;18.972;2023-12-29T12:31:09;4.00;;;2.10;;
75400;SDS011;63974;47.538;18.972;2023-12-29T12:34:15;3.17;;;1.90;;
75400;SDS011;63974;47.538;18.972;2023-12-29T12:37:27;3.65;;;2.30;;
75400;SDS011;63974;47.538;18.972;2023-12-29T12:40:31;6.43;;;2.03;;
75400;SDS011;63974;47.538;18.972;2023-12-29T12:43:34;2.93;;;1.83;;
75400;SDS011;63974;47.538;18.972;2023-12-29T12:49:49;4.05;;;2.20;;
75400;SDS011;63974;47.538;18.972;2023-12-29T12:52:52;3.42;;;2.28;;
75400;SDS011;63974;47.538;18.972;2023-12-29T12:55:55;4.00;;;2.20;;
75400;SDS011;63974;47.538;18.972;2023-12-29T12:58:58;2.90;;;2.17;;
75400;SDS011;63974;47.538;18.972;2023-12-29T13:02:03;3.83;;;1.90;;
75400;SDS011;63974;47.538;18.972;2023-12-29T13:05:08;2.15;;;1.55;;
75400;SDS011;63974;47.538;18.972;2023-12-29T13:08:13;2.72;;;2.13;;
75400;SDS011;63974;47.538;18.972;2023-12-29T13:11:27;3.57;;;1.90;;
75400;SDS011;63974;47.538;18.972;2023-12-29T13:14:29;2.80;;;2.20;;
75400;SDS011;63974;47.538;18.972;2023-12-29T13:17:32;2.20;;;1.63;;
75400;SDS011;63974;47.538;18.972;2023-12-29T13:20:47;2.63;;;1.60;;
75400;SDS011;63974;47.538;18.972;2023-12-29T13:23:52;3.47;;;2.03;;
75400;SDS011;63974;47.538;18.972;2023-12-29T13:26:57;3.17;;;1.83;;
75400;SDS011;63974;47.538;18.972;2023-12-29T13:30:04;2.63;;;1.70;;
75400;SDS011;63974;47.538;18.972;2023-12-29T13:33:09;2.22;;;1.80;;
75400;SDS011;63974;47.538;18.972;2023-12-29T13:36:22;5.18;;;1.60;;
75400;SDS011;63974;47.538;18.972;2023-12-29T13:43:14;2.53;;;1.60;;
75400;SDS011;63974;47.538;18.972;2023-12-29T13:46:19;4.30;;;1.63;;
75400;SDS011;63974;47.538;18.972;2023-12-29T13:49:22;2.80;;;1.83;;
75400;SDS011;63974;47.538;18.972;2023-12-29T13:52:25;2.70;;;2.00;;
75400;SDS011;63974;47.538;18.972;2023-12-29T13:55:28;3.85;;;2.10;;
75400;SDS011;63974;47.538;18.972;2023-12-29T13:58:31;3.00;;;2.10;;
75400;SDS011;63974;47.538;18.972;2023-12-29T14:01:37;3.17;;;1.80;;
75400;SDS011;63974;47.538;18.972;2023-12-29T14:04:40;4.03;;;2.00;;
75400;SDS011;63974;47.538;18.972;2023-12-29T14:07:44;3.08;;;1.98;;
75400;SDS011;63974;47.538;18.972;2023-12-29T14:10:49;3.55;;;1.63;;
75400;SDS011;63974;47.538;18.972;2023-12-29T14:13:52;3.20;;;1.93;;
75400;SDS011;63974;47.538;18.972;2023-12-29T14:16:54;4.27;;;2.60;;
75400;SDS011;63974;47.538;18.972;2023-12-29T14:19:57;6.00;;;2.25;;
75400;SDS011;63974;47.538;18.972;2023-12-29T14:23:06;5.15;;;2.38;;
75400;SDS011;63974;47.538;18.972;2023-12-29T14:26:09;3.42;;;2.30;;
75400;SDS011;63974;47.538;18.972;2023-12-29T14:29:12;5.50;;;3.27;;
75400;SDS011;63974;47.538;18.972;2023-12-29T14:32:15;4.17;;;2.93;;
75400;SDS011;63974;47.538;18.972;2023-12-29T14:35:18;3.58;;;2.40;;
75400;SDS011;63974;47.538;18.972;2023-12-29T14:38:21;4.93;;;2.83;;
75400;SDS011;63974;47.538;18.972;2023-12-29T14:41:25;4.72;;;2.40;;
75400;SDS011;63974;47.538;18.972;2023-12-29T14:44:28;6.27;;;2.87;;
75400;SDS011;63974;47.538;18.972;2023-12-29T14:47:31;5.03;;;2.77;;
75400;SDS011;63974;47.538;18.972;2023-12-29T14:50:34;5.45;;;2.58;;
75400;SDS011;63974;47.538;18.972;2023-12-29T14:53:37;4.45;;;2.47;;
75400;SDS011;63974;47.538;18.972;2023-12-29T14:56:40;4.80;;;2.45;;
75400;SDS011;63974;47.538;18.972;2023-12-29T14:59:42;3.23;;;2.40;;
75400;SDS011;63974;47.538;18.972;2023-12-29T15:02:45;6.03;;;2.23;;
75400;SDS011;63974;47.538;18.972;2023-12-29T15:05:48;4.35;;;2.50;;
75400;SDS011;63974;47.538;18.972;2023-12-29T15:08:51;2.75;;;2.05;;
75400;SDS011;63974;47.538;18.972;2023-12-29T15:11:54;4.40;;;2.08;;
75400;SDS011;63974;47.538;18.972;2023-12-29T15:14:57;3.00;;;1.90;;
75400;SDS011;63974;47.538;18.972;2023-12-29T15:17:59;4.43;;;2.50;;
75400;SDS011;63974;47.538;18.972;2023-12-29T15:21:03;4.00;;;2.40;;
75400;SDS011;63974;47.538;18.972;2023-12-29T15:24:05;6.18;;;3.17;;
75400;SDS011;63974;47.538;18.972;2023-12-29T15:27:09;9.20;;;3.78;;
75400;SDS011;63974;47.538;18.972;2023-12-29T15:30:11;8.00;;;4.33;;
75400;SDS011;63974;47.538;18.972;2023-12-29T15:33:14;6.77;;;3.87;;
75400;SDS011;63974;47.538;18.972;2023-12-29T15:36:17;35.17;;;13.07;;
75400;SDS011;63974;47.538;18.972;2023-12-29T15:39:23;24.42;;;11.25;;
75400;SDS011;63974;47.538;18.972;2023-12-29T15:42:25;15.38;;;8.63;;
75400;SDS011;63974;47.538;18.972;2023-12-29T15:45:29;7.30;;;4.40;;
75400;SDS011;63974;47.538;18.972;2023-12-29T15:48:32;7.17;;;3.60;;
75400;SDS011;63974;47.538;18.972;2023-12-29T15:51:35;5.30;;;3.33;;
75400;SDS011;63974;47.538;18.972;2023-12-29T15:54:38;6.20;;;3.35;;
75400;SDS011;63974;47.538;18.972;2023-12-29T15:57:41;9.55;;;4.03;;
75400;SDS011;63974;47.538;18.972;2023-12-29T16:00:44;6.83;;;4.63;;
75400;SDS011;63974;47.538;18.972;2023-12-29T16:03:47;5.27;;;3.27;;
75400;SDS011;63974;47.538;18.972;2023-12-29T16:06:49;9.20;;;4.20;;
75400;SDS011;63974;47.538;18.972;2023-12-29T16:09:52;6.97;;;4.05;;
75400;SDS011;63974;47.538;18.972;2023-12-29T16:12:55;8.18;;;5.15;;
75400;SDS011;63974;47.538;18.972;2023-12-29T16:15:57;6.17;;;4.30;;
75400;SDS011;63974;47.538;18.972;2023-12-29T16:19:00;6.43;;;4.50;;
75400;SDS011;63974;47.538;18.972;2023-12-29T16:22:04;6.68;;;4.10;;
75400;SDS011;63974;47.538;18.972;2023-12-29T16:25:06;6.85;;;4.10;;
75400;SDS011;63974;47.538;18.972;2023-12-29T16:28:09;6.45;;;3.92;;
75400;SDS011;63974;47.538;18.972;2023-12-29T16:31:13;7.17;;;4.10;;
75400;SDS011;63974;47.538;18.972;2023-12-29T16:34:16;7.60;;;3.77;;
75400;SDS011;63974;47.538;18.972;2023-12-29T16:37:19;6.75;;;3.95;;
75400;SDS011;63974;47.538;18.972;2023-12-29T16:40:22;8.25;;;4.00;;
75400;SDS011;63974;47.538;18.972;2023-12-29T16:43:25;10.27;;;4.93;;
75400;SDS011;63974;47.538;18.972;2023-12-29T16:46:27;9.77;;;5.90;;
75400;SDS011;63974;47.538;18.972;2023-12-29T16:49:30;10.47;;;6.20;;
75400;SDS011;63974;47.538;18.972;2023-12-29T16:52:33;10.25;;;5.90;;
75400;SDS011;63974;47.538;18.972;2023-12-29T16:55:36;10.35;;;6.30;;
75400;SDS011;63974;47.538;18.972;2023-12-29T16:58:38;12.73;;;6.57;;
75400;SDS011;63974;47.538;18.972;2023-12-29T17:01:44;10.50;;;5.90;;
75400;SDS011;63974;47.538;18.972;2023-12-29T17:04:47;8.90;;;5.90;;
75400;SDS011;63974;47.538;18.972;2023-12-29T17:07:50;9.30;;;5.30;;
75400;SDS011;63974;47.538;18.972;2023-12-29T17:10:52;7.75;;;4.60;;
75400;SDS011;63974;47.538;18.972;2023-12-29T17:13:55;8.15;;;5.10;;
75400;SDS011;63974;47.538;18.972;2023-12-29T17:16:58;7.40;;;4.23;;
75400;SDS011;63974;47.538;18.972;2023-12-29T17:20:00;7.67;;;4.40;;
75400;SDS011;63974;47.538;18.972;2023-12-29T17:23:03;7.18;;;4.50;;
75400;SDS011;63974;47.538;18.972;2023-12-29T17:26:09;7.85;;;5.00;;
75400;SDS011;63974;47.538;18.972;2023-12-29T17:29:14;10.52;;;4.85;;
75400;SDS011;63974;47.538;18.972;2023-12-29T17:32:17;10.33;;;6.30;;
75400;SDS011;63974;47.538;18.972;2023-12-29T17:35:20;9.83;;;5.73;;
75400;SDS011;63974;47.538;18.972;2023-12-29T17:38:25;9.15;;;5.03;;
75400;SDS011;63974;47.538;18.972;2023-12-29T17:41:28;9.38;;;4.85;;
75400;SDS011;63974;47.538;18.972;2023-12-29T17:44:31;10.65;;;6.25;;
75400;SDS011;63974;47.538;18.972;2023-12-29T17:47:33;15.30;;;8.43;;
75400;SDS011;63974;47.538;18.972;2023-12-29T17:50:36;11.40;;;6.80;;
75400;SDS011;63974;47.538;18.972;2023-12-29T17:53:39;12.18;;;6.10;;
75400;SDS011;63974;47.538;18.972;2023-12-29T17:56:41;48.55;;;25.77;;
75400;SDS011;63974;47.538;18.972;2023-12-29T17:59:44;31.38;;;15.07;;
75400;SDS011;63974;47.538;18.972;2023-12-29T18:02:49;17.00;;;8.97;;
75400;SDS011;63974;47.538;18.972;2023-12-29T18:05:52;17.03;;;10.23;;
75400;SDS011;63974;47.538;18.972;2023-12-29T18:08:56;21.80;;;12.32;;
75400;SDS011;63974;47.538;18.972;2023-12-29T18:11:59;20.23;;;12.38;;
75400;SDS011;63974;47.538;18.972;2023-12-29T18:15:02;26.23;;;14.02;;
75400;SDS011;63974;47.538;18.972;2023-12-29T18:18:05;22.00;;;13.50;;
75400;SDS011;63974;47.538;18.972;2023-12-29T18:21:08;26.37;;;15.40;;
75400;SDS011;63974;47.538;18.972;2023-12-29T18:24:11;25.42;;;14.13;;
75400;SDS011;63974;47.538;18.972;2023-12-29T18:27:14;25.02;;;13.60;;
75400;SDS011;63974;47.538;18.972;2023-12-29T18:30:19;18.73;;;11.45;;